createdAt,value
2023-05-19T00:01:52.711Z,100.00
2023-05-19T00:04:55.879Z,100.00
2023-05-19T00:08:01.052Z,100.00
2023-05-19T00:11:04.098Z,100.00
2023-05-19T00:14:09.813Z,100.00
2023-05-19T00:17:12.860Z,100.00
2023-05-19T00:20:15.951Z,100.00
2023-05-19T00:23:18.701Z,100.00
2023-05-19T00:26:25.004Z,100.00
2023-05-19T00:29:34.979Z,100.00
2023-05-19T00:32:37.816Z,100.00
2023-05-19T00:35:41.071Z,100.00
2023-05-19T00:38:43.834Z,100.00
2023-05-19T00:41:46.589Z,100.00
2023-05-19T00:44:49.306Z,100.00
2023-05-19T00:47:52.365Z,100.00
2023-05-19T00:51:04.635Z,100.00
2023-05-19T00:54:08.375Z,100.00
2023-05-19T00:57:12.062Z,100.00
2023-05-19T01:00:15.268Z,100.00
2023-05-19T01:03:20.876Z,100.00
2023-05-19T01:06:23.909Z,100.00
2023-05-19T01:09:27.056Z,100.00
2023-05-19T01:12:30.253Z,100.00
2023-05-19T01:16:07.162Z,100.00
2023-05-19T01:19:40.264Z,100.00
2023-05-19T01:23:01.119Z,100.00
2023-05-19T01:26:09.757Z,100.00
2023-05-19T01:29:41.318Z,100.00
2023-05-19T01:32:46.513Z,100.00
2023-05-19T01:35:50.561Z,100.00
2023-05-19T01:38:57.813Z,100.00
2023-05-19T01:42:01.932Z,100.00
2023-05-19T01:45:06.837Z,100.00
2023-05-19T01:48:11.289Z,100.00
2023-05-19T01:51:15.207Z,100.00
2023-05-19T01:54:18.855Z,100.00
2023-05-19T01:57:48.378Z,100.00
2023-05-19T02:01:07.283Z,100.00
2023-05-19T02:04:22.911Z,100.00
2023-05-19T02:07:35.474Z,100.00
2023-05-19T02:10:43.815Z,100.00
2023-05-19T02:13:51.467Z,100.00
2023-05-19T02:16:56.132Z,100.00
2023-05-19T02:19:59.301Z,100.00
2023-05-19T02:23:02.252Z,100.00
2023-05-19T02:26:05.236Z,100.00
2023-05-19T02:29:09.097Z,100.00
2023-05-19T02:32:12.084Z,100.00
2023-05-19T02:35:16.241Z,100.00
2023-05-19T02:38:19.340Z,100.00
2023-05-19T02:41:22.377Z,100.00
2023-05-19T02:44:25.157Z,100.00
2023-05-19T02:47:28.010Z,100.00
2023-05-19T02:50:31.088Z,100.00
2023-05-19T02:53:34.077Z,100.00
2023-05-19T02:56:36.894Z,100.00
2023-05-19T02:59:39.774Z,100.00
2023-05-19T03:02:44.200Z,100.00
2023-05-19T03:05:47.862Z,100.00
2023-05-19T03:08:51.133Z,100.00
2023-05-19T03:11:53.886Z,100.00
2023-05-19T03:14:56.605Z,100.00
2023-05-19T03:17:59.379Z,100.00
2023-05-19T03:21:02.173Z,100.00
2023-05-19T03:24:05.201Z,100.00
2023-05-19T03:27:09.051Z,100.00
2023-05-19T03:30:13.210Z,100.00
2023-05-19T03:33:30.028Z,100.00
2023-05-19T03:36:33.227Z,100.00
2023-05-19T03:39:37.091Z,100.00
2023-05-19T03:42:39.984Z,100.00
2023-05-19T03:45:43.035Z,100.00
2023-05-19T03:49:04.549Z,100.00
2023-05-19T03:52:26.204Z,100.00
2023-05-19T03:55:34.667Z,100.00
2023-05-19T03:58:39.486Z,100.00
2023-05-19T04:01:42.306Z,100.00
2023-05-19T04:04:45.089Z,100.00
2023-05-19T04:07:47.958Z,100.00
2023-05-19T04:10:50.746Z,100.00
2023-05-19T04:13:53.482Z,100.00
2023-05-19T04:16:56.392Z,100.00
2023-05-19T04:19:59.136Z,100.00
2023-05-19T04:23:01.867Z,100.00
2023-05-19T04:26:06.907Z,100.00
2023-05-19T04:29:10.947Z,100.00
2023-05-19T04:32:17.809Z,100.00
2023-05-19T04:35:21.398Z,100.00
2023-05-19T04:38:24.906Z,100.00
2023-05-19T04:41:27.832Z,100.00
2023-05-19T04:44:31.531Z,100.00
2023-05-19T04:47:37.090Z,100.00
2023-05-19T04:50:42.207Z,99.03
2023-05-19T04:53:45.708Z,98.07
2023-05-19T04:56:49.937Z,97.64
2023-05-19T04:59:53.662Z,97.11
2023-05-19T05:02:57.793Z,96.03
2023-05-19T05:06:02.470Z,95.47
2023-05-19T05:09:05.303Z,95.57
2023-05-19T05:12:09.235Z,97.55
2023-05-19T05:15:14.565Z,96.94
2023-05-19T05:18:17.725Z,97.26
2023-05-19T05:21:20.930Z,97.47
2023-05-19T05:24:24.148Z,97.02
2023-05-19T05:27:31.850Z,95.52
2023-05-19T05:30:35.519Z,95.34
2023-05-19T05:33:39.650Z,95.22
2023-05-19T05:36:42.603Z,95.43
2023-05-19T05:39:45.879Z,94.21
2023-05-19T05:42:49.642Z,91.99
2023-05-19T05:45:54.949Z,91.84
2023-05-19T05:48:58.101Z,91.65
2023-05-19T05:52:06.155Z,89.49
2023-05-19T05:55:18.629Z,87.02
2023-05-19T05:58:22.380Z,86.36
2023-05-19T06:01:25.292Z,87.91
2023-05-19T06:04:29.651Z,86.24
2023-05-19T06:07:32.436Z,87.86
2023-05-19T06:10:37.037Z,84.24
2023-05-19T06:13:43.068Z,84.86
2023-05-19T06:16:51.987Z,82.93
2023-05-19T06:19:54.837Z,84.59
2023-05-19T06:22:57.782Z,87.97
2023-05-19T06:26:02.912Z,86.74
2023-05-19T06:29:06.388Z,87.01
2023-05-19T06:32:09.227Z,83.49
2023-05-19T06:35:12.278Z,82.17
2023-05-19T06:38:15.055Z,79.31
2023-05-19T06:41:18.081Z,80.91
2023-05-19T06:44:23.295Z,79.54
2023-05-19T06:47:26.360Z,78.60
2023-05-19T06:50:29.218Z,79.74
2023-05-19T06:53:34.038Z,80.04
2023-05-19T06:56:39.288Z,78.91
2023-05-19T06:59:43.779Z,78.33
2023-05-19T07:02:47.489Z,77.09
2023-05-19T07:05:50.812Z,75.74
2023-05-19T07:08:54.091Z,74.50
2023-05-19T07:11:57.560Z,75.50
2023-05-19T07:15:00.752Z,77.40
2023-05-19T07:18:04.932Z,78.71
2023-05-19T07:21:07.761Z,81.43
2023-05-19T07:24:11.030Z,82.36
2023-05-19T07:27:13.865Z,84.31
2023-05-19T07:30:16.675Z,81.26
2023-05-19T07:33:19.515Z,79.48
2023-05-19T07:36:22.350Z,78.12
2023-05-19T07:39:28.019Z,75.32
2023-05-19T07:42:30.866Z,72.71
2023-05-19T07:45:34.911Z,71.66
2023-05-19T07:48:37.817Z,73.09
2023-05-19T07:51:42.074Z,73.48
2023-05-19T07:54:46.032Z,72.94
2023-05-19T07:57:50.637Z,73.04
2023-05-19T08:00:53.777Z,75.30
2023-05-19T08:03:56.994Z,72.65
2023-05-19T08:06:59.966Z,71.95
2023-05-19T08:10:03.738Z,71.29
2023-05-19T08:13:06.580Z,71.60
2023-05-19T08:16:09.320Z,69.70
2023-05-19T08:19:12.221Z,69.08
2023-05-19T08:22:14.998Z,67.67
2023-05-19T08:25:19.900Z,67.19
2023-05-19T08:28:22.833Z,65.73
2023-05-19T08:31:25.591Z,65.77
2023-05-19T08:34:28.628Z,67.50
2023-05-19T08:37:33.362Z,66.83
2023-05-19T08:40:41.298Z,66.37
2023-05-19T08:43:44.138Z,68.84
2023-05-19T08:46:50.086Z,70.82
2023-05-19T08:49:53.504Z,75.30
2023-05-19T08:53:04.910Z,71.66
2023-05-19T08:56:25.104Z,66.36
2023-05-19T08:59:28.259Z,66.37
2023-05-19T09:02:31.538Z,70.06
2023-05-19T09:05:34.644Z,72.23
2023-05-19T09:08:37.763Z,70.02
2023-05-19T09:11:40.656Z,67.00
2023-05-19T09:14:44.165Z,67.17
2023-05-19T09:17:50.694Z,67.65
2023-05-19T09:21:03.070Z,68.83
2023-05-19T09:24:08.112Z,72.42
2023-05-19T09:27:16.434Z,71.36
2023-05-19T09:30:19.687Z,66.82
2023-05-19T09:33:22.708Z,67.80
2023-05-19T09:36:25.889Z,65.42
2023-05-19T09:39:29.668Z,67.45
2023-05-19T09:42:38.028Z,65.53
2023-05-19T09:45:40.896Z,64.39
2023-05-19T09:48:44.045Z,67.74
2023-05-19T09:51:49.155Z,65.87
2023-05-19T09:54:54.026Z,63.78
2023-05-19T09:57:56.823Z,65.40
2023-05-19T10:01:00.660Z,67.69
2023-05-19T10:04:06.001Z,63.70
2023-05-19T10:07:11.588Z,61.46
2023-05-19T10:10:15.848Z,63.05
2023-05-19T10:13:19.732Z,61.45
2023-05-19T10:16:24.748Z,59.53
2023-05-19T10:19:29.216Z,59.77
2023-05-19T10:22:33.829Z,62.45
2023-05-19T10:25:37.787Z,60.92
2023-05-19T10:28:43.537Z,60.07
2023-05-19T10:31:48.209Z,65.79
2023-05-19T10:35:14.573Z,62.89
2023-05-19T10:38:26.320Z,61.09
2023-05-19T10:41:47.540Z,60.20
2023-05-19T10:45:17.985Z,60.53
2023-05-19T10:48:22.239Z,62.62
2023-05-19T10:51:32.308Z,61.88
2023-05-19T10:54:47.403Z,61.08
2023-05-19T10:57:58.895Z,60.64
2023-05-19T11:01:01.901Z,59.25
2023-05-19T11:04:12.350Z,58.69
2023-05-19T11:07:20.015Z,59.12
2023-05-19T11:10:25.882Z,57.34
2023-05-19T11:13:28.878Z,56.31
2023-05-19T11:16:35.003Z,57.10
2023-05-19T11:19:37.762Z,57.21
2023-05-19T11:22:40.593Z,59.15
2023-05-19T11:25:47.516Z,60.26
2023-05-19T11:28:52.180Z,61.29
2023-05-19T11:31:55.795Z,61.13
2023-05-19T11:34:58.606Z,61.75
2023-05-19T11:38:02.186Z,62.18
2023-05-19T11:41:05.248Z,62.12
2023-05-19T11:44:12.262Z,61.19
2023-05-19T11:47:15.966Z,59.47
2023-05-19T11:50:20.359Z,57.45
2023-05-19T11:53:23.416Z,59.78
2023-05-19T11:56:26.258Z,56.47
2023-05-19T11:59:37.839Z,55.43
2023-05-19T12:02:40.805Z,55.13
2023-05-19T12:05:47.421Z,56.43
2023-05-19T12:08:55.468Z,53.54
2023-05-19T12:11:58.591Z,55.35
2023-05-19T12:15:03.816Z,52.64
2023-05-19T12:18:06.821Z,52.92
2023-05-19T12:21:10.036Z,52.10
2023-05-19T12:24:13.063Z,51.41
2023-05-19T12:27:26.545Z,50.90
2023-05-19T12:30:30.449Z,53.57
2023-05-19T12:33:35.733Z,51.96
2023-05-19T12:36:38.899Z,52.50
2023-05-19T12:39:43.392Z,52.09
2023-05-19T12:42:46.585Z,55.05
2023-05-19T12:45:49.817Z,54.72
2023-05-19T12:48:52.638Z,55.88
2023-05-19T12:51:55.412Z,55.88
2023-05-19T12:55:08.403Z,53.41
2023-05-19T12:58:12.433Z,54.11
2023-05-19T13:01:18.938Z,55.91
2023-05-19T13:04:21.860Z,57.53
2023-05-19T13:07:24.805Z,57.88
2023-05-19T13:10:28.557Z,57.97
2023-05-19T13:13:31.423Z,57.46
2023-05-19T13:16:34.201Z,54.95
2023-05-19T13:19:37.050Z,55.10
2023-05-19T13:22:39.878Z,53.98
2023-05-19T13:25:43.581Z,54.97
2023-05-19T13:28:46.312Z,54.70
2023-05-19T13:31:49.088Z,51.46
2023-05-19T13:34:51.930Z,53.62
2023-05-19T13:37:54.710Z,52.62
2023-05-19T13:40:57.488Z,55.02
2023-05-19T13:44:01.271Z,51.37
2023-05-19T13:47:04.173Z,50.90
2023-05-19T13:50:07.342Z,51.90
2023-05-19T13:53:11.587Z,48.49
2023-05-19T13:56:14.426Z,52.87
2023-05-19T13:59:21.671Z,54.17
2023-05-19T14:02:24.542Z,55.52
2023-05-19T14:05:29.050Z,56.40
2023-05-19T14:08:32.463Z,58.24
2023-05-19T14:11:35.442Z,60.80
2023-05-19T14:14:38.715Z,57.61
2023-05-19T14:17:41.707Z,58.03
2023-05-19T14:20:44.617Z,58.11
2023-05-19T14:23:47.419Z,58.95
2023-05-19T14:26:50.728Z,56.97
2023-05-19T14:29:53.515Z,56.50
2023-05-19T14:32:56.662Z,52.76
2023-05-19T14:36:00.480Z,53.67
2023-05-19T14:39:03.384Z,51.18
2023-05-19T14:42:06.144Z,49.65
2023-05-19T14:45:09.467Z,50.10
2023-05-19T14:48:12.623Z,47.94
2023-05-19T14:51:15.361Z,48.15
2023-05-19T14:54:18.124Z,48.31
2023-05-19T14:57:20.993Z,47.92
2023-05-19T15:00:26.229Z,46.45
2023-05-19T15:03:28.970Z,46.40
2023-05-19T15:06:31.843Z,51.01
2023-05-19T15:09:34.659Z,53.20
2023-05-19T15:12:37.480Z,55.52
2023-05-19T15:15:40.282Z,52.51
2023-05-19T15:18:43.199Z,51.43
2023-05-19T15:21:46.056Z,50.47
2023-05-19T15:24:48.994Z,49.61
2023-05-19T15:27:51.764Z,51.19
2023-05-19T15:30:54.597Z,52.21
2023-05-19T15:33:57.390Z,51.13
2023-05-19T15:37:00.139Z,51.97
2023-05-19T15:40:03.750Z,53.55
2023-05-19T15:43:06.480Z,54.03
2023-05-19T15:46:09.284Z,52.82
2023-05-19T15:49:12.659Z,51.80
2023-05-19T15:52:15.706Z,53.17
2023-05-19T15:55:18.680Z,54.39
2023-05-19T15:58:21.498Z,53.28
2023-05-19T16:01:24.256Z,50.95
2023-05-19T16:04:27.075Z,50.91
2023-05-19T16:07:29.820Z,49.66
2023-05-19T16:10:32.967Z,50.40
2023-05-19T16:13:35.950Z,51.15
2023-05-19T16:16:38.863Z,50.88
2023-05-19T16:19:41.758Z,51.13
2023-05-19T16:22:44.529Z,52.09
2023-05-19T16:25:48.112Z,52.44
2023-05-19T16:28:50.945Z,52.03
2023-05-19T16:31:53.803Z,53.04
2023-05-19T16:34:56.642Z,53.28
2023-05-19T16:37:59.376Z,53.52
2023-05-19T16:41:03.815Z,54.66
2023-05-19T16:44:06.586Z,55.82
2023-05-19T16:47:09.327Z,56.52
2023-05-19T16:50:13.124Z,58.22
2023-05-19T16:53:15.949Z,59.32
2023-05-19T16:56:19.378Z,59.62
2023-05-19T16:59:22.188Z,60.25
2023-05-19T17:02:25.106Z,60.60
2023-05-19T17:05:28.002Z,62.13
2023-05-19T17:08:30.829Z,62.35
2023-05-19T17:11:33.674Z,63.56
2023-05-19T17:14:37.010Z,64.69
2023-05-19T17:17:39.851Z,65.37
2023-05-19T17:20:42.750Z,65.46
2023-05-19T17:23:45.757Z,65.65
2023-05-19T17:26:48.517Z,66.62
2023-05-19T17:29:51.280Z,67.39
2023-05-19T17:32:55.047Z,68.09
2023-05-19T17:35:57.795Z,69.76
2023-05-19T17:39:00.728Z,70.84
2023-05-19T17:42:04.203Z,71.50
2023-05-19T17:45:07.706Z,72.35
2023-05-19T17:48:10.510Z,72.39
2023-05-19T17:51:13.315Z,72.97
2023-05-19T17:54:16.381Z,73.35
2023-05-19T17:57:20.157Z,73.39
2023-05-19T18:00:23.496Z,73.65
2023-05-19T18:03:26.707Z,74.42
2023-05-19T18:06:31.605Z,75.58
2023-05-19T18:09:38.440Z,76.38
2023-05-19T18:12:41.163Z,76.68
2023-05-19T18:15:43.922Z,77.52
2023-05-19T18:18:50.526Z,78.34
2023-05-19T18:21:53.422Z,78.51
2023-05-19T18:24:57.698Z,79.16
2023-05-19T18:28:00.536Z,79.80
2023-05-19T18:31:05.350Z,80.13
2023-05-19T18:34:08.161Z,80.76
2023-05-19T18:37:11.010Z,80.37
2023-05-19T18:40:13.827Z,80.99
2023-05-19T18:43:16.786Z,82.00
2023-05-19T18:46:20.723Z,82.85
2023-05-19T18:49:25.164Z,82.48
2023-05-19T18:52:28.774Z,81.23
2023-05-19T18:55:31.545Z,81.61
2023-05-19T18:58:34.383Z,81.55
2023-05-19T19:01:37.331Z,82.57
2023-05-19T19:04:41.330Z,82.64
2023-05-19T19:07:44.886Z,83.17
2023-05-19T19:10:50.556Z,82.42
2023-05-19T19:13:55.601Z,82.90
2023-05-19T19:16:58.419Z,83.65
2023-05-19T19:20:01.300Z,83.12
2023-05-19T19:23:06.726Z,83.52
2023-05-19T19:26:09.859Z,83.62
2023-05-19T19:29:12.602Z,84.40
2023-05-19T19:32:15.495Z,84.19
2023-05-19T19:35:18.297Z,84.12
2023-05-19T19:38:21.139Z,83.92
2023-05-19T19:41:25.161Z,83.77
2023-05-19T19:44:27.944Z,84.50
2023-05-19T19:47:30.895Z,84.83
2023-05-19T19:50:34.837Z,84.98
2023-05-19T19:53:38.070Z,84.75
2023-05-19T19:56:40.899Z,86.09
2023-05-19T19:59:43.838Z,86.03
2023-05-19T20:05:56.717Z,87.28
2023-05-19T20:09:00.025Z,87.48
2023-05-19T20:12:02.762Z,86.92
2023-05-19T20:15:06.393Z,87.44
2023-05-19T20:18:09.429Z,87.78
2023-05-19T20:21:12.224Z,87.39
2023-05-19T20:24:14.993Z,87.58
2023-05-19T20:27:17.750Z,87.05
2023-05-19T20:30:20.866Z,86.51
2023-05-19T20:33:23.601Z,86.45
2023-05-19T20:36:26.788Z,86.91
2023-05-19T20:39:31.120Z,86.28
2023-05-19T20:42:34.171Z,86.55
2023-05-19T20:45:37.154Z,86.81
2023-05-19T20:48:40.170Z,87.09
2023-05-19T20:51:43.056Z,87.11
2023-05-19T20:54:46.571Z,87.12
2023-05-19T20:57:49.319Z,87.29
2023-05-19T21:00:57.782Z,87.70
2023-05-19T21:04:01.265Z,87.23
2023-05-19T21:07:04.567Z,87.25
2023-05-19T21:10:07.998Z,87.58
2023-05-19T21:13:10.826Z,88.16
2023-05-19T21:16:13.570Z,88.23
2023-05-19T21:19:16.603Z,88.11
2023-05-19T21:22:19.406Z,88.84
2023-05-19T21:25:22.476Z,88.46
2023-05-19T21:28:25.250Z,89.35
2023-05-19T21:31:28.007Z,89.76
2023-05-19T21:34:30.864Z,89.93
2023-05-19T21:37:35.745Z,89.26
2023-05-19T21:40:38.467Z,89.50
2023-05-19T21:43:42.180Z,90.08
2023-05-19T21:46:45.085Z,90.36
2023-05-19T21:49:47.902Z,90.54
2023-05-19T21:52:51.061Z,90.57
2023-05-19T21:55:53.957Z,90.53
2023-05-19T21:58:56.749Z,90.25
2023-05-19T22:01:59.539Z,90.27
2023-05-19T22:05:02.332Z,90.82
2023-05-19T22:08:05.319Z,91.91
2023-05-19T22:11:09.178Z,92.07
2023-05-19T22:14:11.953Z,91.72
2023-05-19T22:17:14.719Z,92.30
2023-05-19T22:20:17.702Z,92.79
2023-05-19T22:23:21.025Z,93.24
2023-05-19T22:26:23.748Z,93.75
2023-05-19T22:29:26.536Z,92.72
2023-05-19T22:32:30.558Z,92.28
2023-05-19T22:35:33.390Z,92.10
2023-05-19T22:38:36.496Z,91.83
2023-05-19T22:41:39.549Z,92.44
2023-05-19T22:44:43.570Z,92.71
2023-05-19T22:47:48.143Z,92.37
2023-05-19T22:50:51.108Z,91.74
2023-05-19T22:53:54.299Z,91.62
2023-05-19T22:56:57.132Z,91.77
2023-05-19T22:59:59.951Z,91.35
2023-05-19T23:03:02.718Z,90.77
2023-05-19T23:06:05.460Z,89.76
2023-05-19T23:09:08.274Z,90.10
2023-05-19T23:12:11.035Z,90.62
2023-05-19T23:15:13.776Z,90.54
2023-05-19T23:18:16.510Z,90.76
2023-05-19T23:21:19.510Z,91.00
2023-05-19T23:24:22.332Z,91.08
2023-05-19T23:27:25.100Z,91.91
2023-05-19T23:30:30.453Z,91.56
2023-05-19T23:33:33.270Z,91.13
2023-05-19T23:36:36.732Z,91.82
2023-05-19T23:39:39.641Z,91.01
2023-05-19T23:42:44.521Z,91.46
2023-05-19T23:45:47.293Z,92.00
2023-05-19T23:48:50.105Z,91.61
2023-05-19T23:51:52.929Z,91.68
2023-05-19T23:54:55.745Z,91.80
2023-05-19T23:57:58.569Z,91.99
